Time;durP1;ratioP1;P1;durP2;ratioP2;P2;SDS_P1;SDS_P2;PMS_P1;PMS_P2;Temp;Humidity;BMP_temperature;BMP_pressure;BME280_temperature;BME280_humidity;BME280_pressure;Samples;Min_cycle;Max_cycle;Signal;HPM_P1;HPM_P2
2022/04/05 00:00:18;;;;;;;11.63;6.38;;;6.40;99.90;;;;;;5153141;27;20054;-46
2022/04/05 00:02:44;;;;;;;12.30;6.60;;;6.40;99.90;;;;;;5153616;27;20018;-46
2022/04/05 00:05:09;;;;;;;8.73;5.82;;;6.30;99.90;;;;;;5153771;27;20053;-47
2022/04/05 00:07:35;;;;;;;9.52;5.45;;;6.30;99.90;;;;;;5152129;27;20018;-46
2022/04/05 00:10:00;;;;;;;9.52;5.93;;;6.30;99.90;;;;;;5152959;27;20034;-47
2022/04/05 00:12:26;;;;;;;12.10;6.30;;;6.20;99.90;;;;;;5153349;27;20022;-46
2022/04/05 00:14:52;;;;;;;8.80;6.63;;;6.20;99.90;;;;;;5153741;27;20023;-47
2022/04/05 00:17:19;;;;;;;10.18;6.35;;;6.20;99.90;;;;;;5151923;27;20023;-48
2022/04/05 00:19:44;;;;;;;9.95;6.22;;;6.20;99.90;;;;;;5152751;27;20023;-50
2022/04/05 00:22:10;;;;;;;14.00;6.32;;;6.20;99.90;;;;;;5151965;27;20037;-46
2022/04/05 00:24:35;;;;;;;9.45;5.88;;;6.20;99.90;;;;;;5153468;27;20043;-46
2022/04/05 00:27:01;;;;;;;10.77;6.10;;;6.20;99.90;;;;;;5153114;27;20484;-59
2022/04/05 00:29:26;;;;;;;8.18;5.97;;;6.20;99.90;;;;;;5152499;27;20585;-60
2022/04/05 00:31:52;;;;;;;8.20;4.93;;;6.20;99.90;;;;;;5152911;27;20019;-60
2022/04/05 00:34:19;;;;;;;8.60;5.55;;;6.20;99.90;;;;;;5153110;27;20101;-59
2022/04/05 00:36:45;;;;;;;7.88;5.32;;;6.20;99.90;;;;;;5151713;27;20057;-59
2022/04/05 00:39:11;;;;;;;9.02;5.57;;;6.20;99.90;;;;;;5152412;27;20015;-60
2022/04/05 00:41:38;;;;;;;8.45;4.95;;;6.20;99.90;;;;;;5151742;27;20027;-60
2022/04/05 00:44:04;;;;;;;7.50;4.68;;;6.20;99.90;;;;;;5151583;27;20475;-59
2022/04/05 00:46:29;;;;;;;7.63;4.97;;;6.20;99.90;;;;;;5152611;27;20037;-59
2022/04/05 00:48:59;;;;;;;11.40;5.57;;;6.20;99.90;;;;;;5152134;27;20027;-60
2022/04/05 00:51:26;;;;;;;9.00;5.55;;;6.10;99.90;;;;;;5152832;27;20011;-60
2022/04/05 00:53:54;;;;;;;12.38;6.05;;;6.10;99.90;;;;;;5152716;27;20607;-60
2022/04/05 00:56:20;;;;;;;11.73;6.82;;;6.10;99.90;;;;;;5152612;27;20476;-59
2022/04/05 00:58:48;;;;;;;10.13;7.13;;;6.20;99.90;;;;;;5151483;27;20027;-59
2022/04/05 01:01:18;;;;;;;11.55;7.88;;;6.20;99.90;;;;;;5152268;27;20038;-60
2022/04/05 01:03:49;;;;;;;12.32;7.47;;;6.20;99.90;;;;;;5151256;27;20105;-60
2022/04/05 01:06:22;;;;;;;10.95;7.43;;;6.20;99.90;;;;;;5152226;27;20125;-57
2022/04/05 01:08:49;;;;;;;16.10;8.05;;;6.20;99.90;;;;;;5151286;27;20387;-59
2022/04/05 01:11:14;;;;;;;12.23;7.95;;;6.20;99.90;;;;;;5152285;27;20026;-59
2022/04/05 01:13:41;;;;;;;17.23;7.65;;;6.20;99.90;;;;;;5152376;27;20033;-59
2022/04/05 01:16:07;;;;;;;12.80;7.43;;;6.20;99.90;;;;;;5152209;27;20023;-59
2022/04/05 01:18:33;;;;;;;11.15;7.30;;;6.20;99.90;;;;;;5151719;27;20379;-59
2022/04/05 01:20:59;;;;;;;10.93;6.93;;;6.20;99.90;;;;;;5152067;27;20078;-59
2022/04/05 01:23:25;;;;;;;12.52;7.10;;;6.20;99.90;;;;;;5151950;27;20195;-59
2022/04/05 01:25:51;;;;;;;12.23;6.68;;;6.20;99.90;;;;;;5151865;27;20035;-59
2022/04/05 01:28:17;;;;;;;13.18;7.18;;;6.20;99.90;;;;;;5151922;27;20019;-57
2022/04/05 01:30:43;;;;;;;12.65;7.00;;;6.20;99.90;;;;;;5151328;27;20105;-60
2022/04/05 01:33:09;;;;;;;16.30;8.85;;;6.20;99.90;;;;;;5152029;27;20098;-60
2022/04/05 01:35:34;;;;;;;13.70;9.10;;;6.20;99.90;;;;;;5151970;27;20102;-58
2022/04/05 01:38:02;;;;;;;15.65;9.63;;;6.20;99.90;;;;;;5151968;27;20440;-59
2022/04/05 01:40:28;;;;;;;19.85;10.07;;;6.20;99.90;;;;;;5149910;27;20113;-59
2022/04/05 01:42:53;;;;;;;20.45;10.73;;;6.20;99.90;;;;;;5151558;27;20106;-59
2022/04/05 01:45:19;;;;;;;19.67;11.85;;;6.30;99.90;;;;;;5151565;27;20026;-59
2022/04/05 01:47:45;;;;;;;17.98;11.02;;;6.30;99.90;;;;;;5151789;27;20030;-59
2022/04/05 01:50:10;;;;;;;24.33;13.02;;;6.20;99.90;;;;;;5149638;27;20480;-59
2022/04/05 01:52:36;;;;;;;19.08;11.38;;;6.20;99.90;;;;;;5151627;27;20094;-59
2022/04/05 01:55:02;;;;;;;21.10;11.57;;;6.30;99.90;;;;;;5151548;27;20015;-59
2022/04/05 01:57:27;;;;;;;15.70;10.60;;;6.30;99.90;;;;;;5151848;27;20026;-59
2022/04/05 01:59:52;;;;;;;18.58;10.07;;;6.30;99.90;;;;;;5150799;27;20101;-59
2022/04/05 02:02:18;;;;;;;15.77;8.57;;;6.20;99.90;;;;;;5151361;27;20022;-59
2022/04/05 02:04:44;;;;;;;14.43;8.65;;;6.20;99.90;;;;;;5151349;27;20022;-58
2022/04/05 02:07:17;;;;;;;14.10;8.20;;;6.20;99.90;;;;;;5151260;27;20357;-59
2022/04/05 02:09:44;;;;;;;13.00;7.47;;;6.20;99.90;;;;;;5150409;27;20543;-59
2022/04/05 02:12:10;;;;;;;13.48;6.53;;;6.20;99.90;;;;;;5151269;27;20075;-58
2022/04/05 02:14:37;;;;;;;12.20;7.13;;;6.20;99.90;;;;;;5149846;27;20023;-59
2022/04/05 02:17:03;;;;;;;17.50;7.80;;;6.10;99.90;;;;;;5151362;27;20010;-58
2022/04/05 02:19:29;;;;;;;14.23;8.52;;;6.20;99.90;;;;;;5149667;27;20270;-59
2022/04/05 02:21:55;;;;;;;12.15;6.90;;;6.20;99.90;;;;;;5151374;27;20026;-58
2022/04/05 02:24:21;;;;;;;15.55;8.20;;;6.10;99.90;;;;;;5150831;27;20510;-58
2022/04/05 02:26:48;;;;;;;14.45;8.65;;;6.20;99.90;;;;;;5151018;27;20475;-58
2022/04/05 02:29:13;;;;;;;12.88;7.30;;;6.20;99.90;;;;;;5150403;27;20038;-58
2022/04/05 02:31:39;;;;;;;10.43;6.93;;;6.20;99.90;;;;;;5150683;27;20093;-58
2022/04/05 02:34:05;;;;;;;11.73;7.03;;;6.10;99.90;;;;;;5150661;27;20037;-58
2022/04/05 02:36:30;;;;;;;14.02;6.82;;;6.20;99.90;;;;;;5150724;27;20019;-58
2022/04/05 02:38:56;;;;;;;13.43;7.65;;;6.10;99.90;;;;;;5150312;27;20321;-58
2022/04/05 02:41:21;;;;;;;22.65;7.82;;;6.10;99.90;;;;;;5150811;27;20023;-58
2022/04/05 02:43:47;;;;;;;16.33;7.82;;;6.10;99.90;;;;;;5149136;27;20030;-59
2022/04/05 02:46:12;;;;;;;17.23;8.25;;;6.10;99.90;;;;;;5150432;27;20023;-58
2022/04/05 02:48:43;;;;;;;18.52;9.15;;;6.10;99.90;;;;;;5149910;27;20031;-58
2022/04/05 02:51:12;;;;;;;;;;;6.10;99.90;;;;;;5151057;27;20011;-58
2022/04/05 02:53:37;;;;;;;13.52;8.35;;;6.10;99.90;;;;;;5150411;27;20279;-59
2022/04/05 02:56:03;;;;;;;13.85;8.23;;;6.10;99.90;;;;;;5150319;27;20109;-59
2022/04/05 02:58:29;;;;;;;14.82;8.73;;;6.10;99.90;;;;;;5150218;27;20031;-59
2022/04/05 03:00:55;;;;;;;16.10;8.30;;;6.10;99.90;;;;;;5149555;27;20039;-59
2022/04/05 03:03:20;;;;;;;16.02;8.68;;;6.10;99.90;;;;;;5150241;27;20021;-59
2022/04/05 03:05:46;;;;;;;12.85;7.95;;;6.20;99.90;;;;;;5150107;27;20113;-59
2022/04/05 03:08:11;;;;;;;16.50;9.00;;;6.10;99.90;;;;;;5150585;27;20027;-59
2022/04/05 03:10:37;;;;;;;15.77;8.90;;;6.10;99.90;;;;;;5149578;27;20067;-59
2022/04/05 03:13:03;;;;;;;14.07;8.32;;;6.10;99.90;;;;;;5150254;27;20025;-59
2022/04/05 03:15:29;;;;;;;14.40;8.43;;;6.10;99.90;;;;;;5150157;27;20052;-59
2022/04/05 03:17:55;;;;;;;14.15;7.93;;;6.10;99.90;;;;;;5150158;27;20035;-59
2022/04/05 03:20:21;;;;;;;14.18;8.05;;;6.10;99.90;;;;;;5149976;27;20030;-59
2022/04/05 03:22:46;;;;;;;15.60;8.57;;;6.10;99.90;;;;;;5150186;27;20027;-59
2022/04/05 03:25:12;;;;;;;13.70;8.20;;;6.10;99.90;;;;;;5150377;27;20098;-59
2022/04/05 03:27:40;;;;;;;14.60;8.38;;;6.10;99.90;;;;;;5149915;27;20027;-59
2022/04/05 03:30:11;;;;;;;22.23;5.78;;;6.10;99.90;;;;;;5149711;27;20026;-59
2022/04/05 03:32:37;;;;;;;4.60;2.65;;;6.00;99.90;;;;;;5153799;27;20050;-59
2022/04/05 03:35:04;;;;;;;10.60;2.58;;;6.00;99.90;;;;;;5154336;27;20015;-59
2022/04/05 03:37:29;;;;;;;5.93;2.38;;;5.90;99.90;;;;;;5154062;27;20023;-59
2022/04/05 03:39:55;;;;;;;4.32;2.00;;;5.70;99.90;;;;;;5153843;27;20479;-59
2022/04/05 03:42:21;;;;;;;12.82;3.42;;;5.60;99.90;;;;;;5153903;27;20029;-59
2022/04/05 03:44:47;;;;;;;13.25;2.20;;;5.50;99.90;;;;;;5154128;27;20071;-59
2022/04/05 03:47:13;;;;;;;8.52;2.03;;;5.50;99.90;;;;;;5153874;27;20027;-59
2022/04/05 03:49:38;;;;;;;5.07;2.35;;;5.40;99.90;;;;;;5153034;27;20101;-59
2022/04/05 03:52:04;;;;;;;10.43;3.25;;;5.40;99.90;;;;;;5153775;27;20039;-59
2022/04/05 03:54:29;;;;;;;7.57;2.35;;;5.40;99.90;;;;;;5153615;27;20122;-59
2022/04/05 03:56:55;;;;;;;6.32;2.08;;;5.40;99.90;;;;;;5153836;27;20046;-59
2022/04/05 03:59:20;;;;;;;6.40;2.00;;;5.40;99.90;;;;;;5153203;27;20030;-59
2022/04/05 04:01:46;;;;;;;12.50;3.30;;;5.40;99.90;;;;;;5154000;27;20102;-58
2022/04/05 04:04:11;;;;;;;14.85;3.33;;;5.40;99.90;;;;;;5153986;27;20027;-58
2022/04/05 04:06:37;;;;;;;8.48;3.25;;;5.40;99.90;;;;;;5153891;27;20061;-58
2022/04/05 04:09:03;;;;;;;10.13;2.88;;;5.40;99.90;;;;;;5153102;27;20026;-58
2022/04/05 04:11:28;;;;;;;8.52;2.63;;;5.40;99.90;;;;;;5153591;27;20604;-58
2022/04/05 04:13:55;;;;;;;10.05;2.88;;;5.40;99.90;;;;;;5153541;27;20043;-58
2022/04/05 04:16:20;;;;;;;14.10;3.38;;;5.40;99.90;;;;;;5153309;27;20026;-58
2022/04/05 04:18:46;;;;;;;8.88;3.70;;;5.40;99.90;;;;;;5152511;27;20034;-59
2022/04/05 04:21:11;;;;;;;10.25;3.35;;;5.40;99.90;;;;;;5153217;27;20040;-58
2022/04/05 04:23:37;;;;;;;15.10;3.28;;;5.40;99.90;;;;;;5153172;27;20023;-58
2022/04/05 04:26:02;;;;;;;15.32;3.45;;;5.40;99.90;;;;;;5153164;27;20023;-58
2022/04/05 04:28:28;;;;;;;15.88;5.07;;;5.40;99.90;;;;;;5153138;27;20015;-58
2022/04/05 04:30:54;;;;;;;20.80;4.18;;;5.40;99.90;;;;;;5151239;27;20384;-58
2022/04/05 04:33:19;;;;;;;11.07;4.75;;;5.40;99.90;;;;;;5153007;27;20363;-58
2022/04/05 04:35:45;;;;;;;10.65;2.10;;;5.40;99.90;;;;;;5145948;27;20019;-57
2022/04/05 04:38:12;;;;;;;8.98;2.80;;;5.30;99.90;;;;;;5132175;27;20027;-57
2022/04/05 04:40:38;;;;;;;14.52;2.05;;;5.00;99.90;;;;;;5131160;27;20072;-57
2022/04/05 04:43:04;;;;;;;10.07;1.95;;;4.90;99.90;;;;;;5131315;27;20176;-58
2022/04/05 04:45:31;;;;;;;11.20;2.50;;;4.80;99.90;;;;;;5132268;27;20035;-58
2022/04/05 04:47:56;;;;;;;9.05;1.60;;;4.70;99.90;;;;;;5131946;27;20408;-59
2022/04/05 04:50:22;;;;;;;9.57;1.75;;;4.60;99.90;;;;;;5131231;27;20012;-59
2022/04/05 04:52:48;;;;;;;4.85;2.15;;;4.60;99.90;;;;;;5132172;27;20452;-58
2022/04/05 04:55:13;;;;;;;8.23;2.10;;;4.50;99.90;;;;;;5131681;27;20049;-58
2022/04/05 04:57:39;;;;;;;13.18;2.42;;;4.50;99.90;;;;;;5131764;27;20050;-59
2022/04/05 05:00:06;;;;;;;10.68;2.42;;;4.50;99.90;;;;;;5130911;27;20549;-58
2022/04/05 05:02:49;;;;;;;11.77;2.42;;;4.40;99.90;;;;;;5131614;27;20031;-59
2022/04/05 05:05:18;;;;;;;9.52;2.33;;;4.40;99.90;;;;;;5131725;27;20100;-58
2022/04/05 05:07:44;;;;;;;13.30;2.55;;;4.40;99.90;;;;;;5131769;27;20150;-59
2022/04/05 05:10:11;;;;;;;12.85;2.78;;;4.50;99.90;;;;;;5131009;27;20019;-59
2022/04/05 05:12:40;;;;;;;16.48;2.78;;;4.50;99.90;;;;;;5131618;27;20089;-59
2022/04/05 05:15:25;;;;;;;8.05;2.63;;;4.50;99.90;;;;;;5131380;27;20023;-59
2022/04/05 05:17:50;;;;;;;7.55;2.30;;;4.50;99.90;;;;;;5124709;27;20029;-59
2022/04/05 05:20:16;;;;;;;10.07;2.65;;;4.60;99.90;;;;;;5124597;27;20027;-46
2022/04/05 05:22:42;;;;;;;7.40;2.60;;;4.60;99.90;;;;;;5130997;27;20033;-46
2022/04/05 05:25:10;;;;;;;11.57;2.60;;;4.60;99.90;;;;;;5129561;27;20031;-45
2022/04/05 05:27:37;;;;;;;9.82;2.70;;;4.60;99.90;;;;;;5128909;27;20037;-60
2022/04/05 05:30:08;;;;;;;23.23;3.17;;;4.50;99.90;;;;;;5115123;27;20357;-59
2022/04/05 05:32:41;;;;;;;;;;;4.60;99.90;;;;;;5129975;27;20023;-59
2022/04/05 05:35:07;;;;;;;20.05;3.22;;;4.60;99.90;;;;;;5130441;27;19926;-59
2022/04/05 05:37:32;;;;;;;19.90;2.72;;;4.50;99.90;;;;;;5130290;27;20019;-59
2022/04/05 05:39:58;;;;;;;18.83;4.05;;;4.60;99.90;;;;;;5129404;27;20502;-59
2022/04/05 05:42:23;;;;;;;14.88;3.05;;;4.60;99.90;;;;;;5130173;27;20083;-59
2022/04/05 05:44:48;;;;;;;16.30;3.03;;;4.70;99.90;;;;;;5130877;27;20416;-59
2022/04/05 05:47:14;;;;;;;5.25;2.53;;;4.60;99.90;;;;;;5130043;27;20413;-59
2022/04/05 05:49:39;;;;;;;9.45;2.35;;;4.70;99.90;;;;;;5127698;27;20020;-59
2022/04/05 05:52:05;;;;;;;13.38;3.05;;;4.70;99.90;;;;;;5119724;27;20015;-59
2022/04/05 05:54:31;;;;;;;21.58;3.42;;;4.70;99.90;;;;;;5115627;27;20070;-59
2022/04/05 05:56:56;;;;;;;11.23;3.10;;;4.70;99.90;;;;;;5117296;27;20031;-60
2022/04/05 05:59:23;;;;;;;10.68;2.75;;;4.80;99.90;;;;;;5106336;28;20118;-59
2022/04/05 06:01:49;;;;;;;15.00;2.53;;;4.90;99.90;;;;;;5132734;27;20031;-59
2022/04/05 06:04:14;;;;;;;12.45;2.55;;;4.90;99.90;;;;;;5129160;27;20023;-59
2022/04/05 06:06:39;;;;;;;21.65;3.60;;;4.80;99.90;;;;;;5130095;27;20058;-59
2022/04/05 06:09:06;;;;;;;20.80;2.90;;;4.90;99.90;;;;;;5129208;27;20068;-59
2022/04/05 06:11:32;;;;;;;10.60;2.10;;;5.00;99.90;;;;;;5123275;27;20085;-59
2022/04/05 06:13:57;;;;;;;17.40;2.38;;;5.10;99.90;;;;;;5141506;27;20035;-59
2022/04/05 06:16:23;;;;;;;15.13;2.60;;;5.00;99.90;;;;;;5135015;27;20071;-59
2022/04/05 06:18:48;;;;;;;15.70;2.90;;;5.10;99.90;;;;;;5129428;27;20478;-58
2022/04/05 06:21:15;;;;;;;17.38;2.80;;;5.10;99.90;;;;;;5131676;27;20027;-58
2022/04/05 06:23:40;;;;;;;17.20;3.25;;;5.20;99.90;;;;;;5130112;27;20023;-59
2022/04/05 06:26:06;;;;;;;21.42;4.60;;;5.10;99.90;;;;;;5128090;27;20027;-58
2022/04/05 06:28:32;;;;;;;14.73;2.40;;;5.20;99.90;;;;;;5129872;27;20024;-58
2022/04/05 06:30:57;;;;;;;12.15;2.50;;;5.30;99.90;;;;;;5110592;27;20370;-58
2022/04/05 06:33:23;;;;;;;14.82;3.40;;;5.30;99.90;;;;;;5124030;27;20103;-58
2022/04/05 06:35:51;;;;;;;8.55;2.45;;;5.40;99.90;;;;;;5129506;27;20023;-58
2022/04/05 06:38:16;;;;;;;15.90;3.50;;;5.40;99.90;;;;;;5129321;27;20015;-58
2022/04/05 06:40:43;;;;;;;13.95;2.85;;;5.40;99.90;;;;;;5127034;27;20076;-58
2022/04/05 06:43:09;;;;;;;17.05;2.60;;;5.50;99.90;;;;;;5108984;28;20019;-58
2022/04/05 06:45:35;;;;;;;11.63;2.35;;;5.60;99.90;;;;;;5124510;27;20050;-58
2022/04/05 06:48:02;;;;;;;12.98;3.15;;;5.70;99.90;;;;;;5129227;27;20023;-58
2022/04/05 06:50:28;;;;;;;18.83;2.85;;;5.60;99.90;;;;;;5128312;27;20029;-58
2022/04/05 06:52:57;;;;;;;15.10;2.88;;;5.60;99.90;;;;;;5120586;27;20103;-58
2022/04/05 06:55:24;;;;;;;20.50;3.87;;;5.70;99.90;;;;;;5127572;27;20016;-58
2022/04/05 06:57:50;;;;;;;13.68;2.90;;;5.70;99.90;;;;;;5129740;27;20022;-58
2022/04/05 07:00:22;;;;;;;14.40;2.70;;;5.70;99.90;;;;;;5128970;27;20064;-59
2022/04/05 07:02:48;;;;;;;12.15;2.67;;;5.90;99.90;;;;;;5129859;27;20030;-59
2022/04/05 07:05:14;;;;;;;15.25;2.58;;;6.00;99.90;;;;;;5123562;27;20019;-58
2022/04/05 07:07:40;;;;;;;17.23;2.67;;;6.00;99.90;;;;;;5119525;27;20402;-58
2022/04/05 07:10:07;;;;;;;13.70;2.53;;;6.10;99.90;;;;;;5113403;28;20447;-58
2022/04/05 07:12:33;;;;;;;10.73;3.00;;;6.20;99.90;;;;;;5128232;27;20114;-58
2022/04/05 07:14:59;;;;;;;18.23;3.13;;;6.30;99.90;;;;;;5128920;27;20107;-58
2022/04/05 07:17:25;;;;;;;11.10;3.10;;;6.40;99.90;;;;;;5128240;28;20142;-58
2022/04/05 07:19:52;;;;;;;18.73;3.53;;;6.60;99.90;;;;;;5128106;27;20031;-58
2022/04/05 07:22:18;;;;;;;9.85;2.15;;;6.60;99.90;;;;;;5114938;27;20395;-58
2022/04/05 07:24:43;;;;;;;13.27;2.63;;;6.80;99.90;;;;;;5108571;28;20500;-58
2022/04/05 07:27:09;;;;;;;14.95;2.92;;;6.90;99.90;;;;;;5107376;28;20031;-58
2022/04/05 07:29:34;;;;;;;10.30;2.10;;;7.00;99.90;;;;;;5117301;27;20023;-58
2022/04/05 07:32:00;;;;;;;15.40;3.30;;;7.20;99.90;;;;;;5120041;27;20023;-58
2022/04/05 07:34:26;;;;;;;10.05;2.65;;;7.30;99.90;;;;;;5122662;27;20392;-58
2022/04/05 07:36:51;;;;;;;19.08;2.95;;;7.40;99.90;;;;;;5117289;28;20031;-58
2022/04/05 07:39:21;;;;;;;7.35;2.60;;;7.40;99.90;;;;;;5118250;28;20479;-59
2022/04/05 07:41:47;;;;;;;12.88;2.35;;;7.40;99.90;;;;;;5118919;28;20020;-58
2022/04/05 07:44:13;;;;;;;13.65;3.08;;;7.50;99.90;;;;;;5119476;27;20102;-58
2022/04/05 07:46:39;;;;;;;11.57;2.30;;;7.50;99.90;;;;;;5118491;27;20015;-60
2022/04/05 07:49:04;;;;;;;12.70;2.72;;;7.50;99.90;;;;;;5118354;27;20465;-58
2022/04/05 07:51:30;;;;;;;19.90;3.53;;;7.50;99.90;;;;;;5116622;28;20023;-58
2022/04/05 07:53:55;;;;;;;11.90;2.88;;;7.60;99.90;;;;;;5118457;27;20023;-58
2022/04/05 07:56:21;;;;;;;14.55;2.65;;;7.80;99.90;;;;;;5117544;28;20025;-58
2022/04/05 07:58:47;;;;;;;16.10;2.45;;;7.90;99.90;;;;;;5118783;28;20035;-58
2022/04/05 08:01:12;;;;;;;10.07;1.80;;;8.10;99.90;;;;;;5117353;28;20050;-58
2022/04/05 08:03:38;;;;;;;13.40;3.00;;;8.10;99.90;;;;;;5120969;27;20020;-58
2022/04/05 08:06:04;;;;;;;10.55;2.42;;;8.20;99.90;;;;;;5118014;27;20401;-59
2022/04/05 08:08:30;;;;;;;10.52;2.70;;;8.50;99.90;;;;;;5117218;28;20024;-58
2022/04/05 08:10:56;;;;;;;12.52;2.47;;;8.70;99.90;;;;;;5117189;28;20019;-58
2022/04/05 08:13:22;;;;;;;12.95;2.25;;;9.00;99.90;;;;;;5116751;28;20022;-59
2022/04/05 08:15:48;;;;;;;14.27;2.65;;;9.20;99.90;;;;;;5115173;27;20107;-58
2022/04/05 08:18:13;;;;;;;11.30;2.40;;;9.40;99.90;;;;;;5117140;27;20103;-59
2022/04/05 08:20:41;;;;;;;13.55;2.13;;;9.80;99.90;;;;;;5120690;27;20012;-58
2022/04/05 08:23:08;;;;;;;13.13;2.20;;;10.00;99.90;;;;;;5113038;27;20049;-59
2022/04/05 08:25:33;;;;;;;14.95;2.95;;;10.00;99.90;;;;;;5112035;28;20016;-59
2022/04/05 08:27:59;;;;;;;11.82;2.35;;;10.00;99.90;;;;;;5113743;27;20027;-58
2022/04/05 08:30:25;;;;;;;10.18;2.25;;;9.80;99.90;;;;;;5132013;27;20086;-59
2022/04/05 08:32:51;;;;;;;9.63;2.38;;;9.90;99.90;;;;;;5132206;27;20145;-59
2022/04/05 08:35:18;;;;;;;8.65;2.45;;;10.00;99.90;;;;;;5132104;27;20019;-59
2022/04/05 08:37:45;;;;;;;10.65;1.83;;;10.00;99.90;;;;;;5132418;27;20027;-58
2022/04/05 08:40:13;;;;;;;9.10;2.40;;;9.80;99.90;;;;;;5135649;27;20023;-59
2022/04/05 08:42:41;;;;;;;6.45;1.90;;;9.60;99.90;;;;;;5132339;27;20031;-59
2022/04/05 08:45:10;;;;;;;17.73;2.72;;;9.60;99.90;;;;;;5130998;27;20257;-60
2022/04/05 08:47:39;;;;;;;12.75;2.72;;;9.30;99.90;;;;;;5131904;27;20027;-59
2022/04/05 08:50:05;;;;;;;19.63;3.03;;;9.20;99.90;;;;;;5130479;27;20015;-59
2022/04/05 08:52:31;;;;;;;12.55;1.90;;;9.10;99.90;;;;;;5131947;27;20019;-59
2022/04/05 08:54:57;;;;;;;12.55;2.22;;;9.10;99.90;;;;;;5130428;27;20223;-59
2022/04/05 08:57:23;;;;;;;8.60;2.00;;;9.20;99.90;;;;;;5131705;27;20066;-59
2022/04/05 08:59:48;;;;;;;8.23;2.60;;;9.10;99.90;;;;;;5129792;27;20365;-59
2022/04/05 09:02:22;;;;;;;16.95;2.28;;;9.30;99.90;;;;;;5131973;27;20023;-59
2022/04/05 09:04:48;;;;;;;12.65;2.63;;;9.50;99.90;;;;;;5152292;27;20105;-59
2022/04/05 09:07:24;;;;;;;10.80;2.45;;;9.50;99.90;;;;;;5152435;27;20574;-59
2022/04/05 09:10:07;;;;;;;7.68;2.47;;;9.50;99.90;;;;;;5123638;27;20019;-59
2022/04/05 09:12:47;;;;;;;15.57;2.65;;;9.60;99.90;;;;;;5125987;27;20098;-59
2022/04/05 09:15:18;;;;;;;13.85;2.13;;;9.50;99.90;;;;;;5121546;27;20016;-59
2022/04/05 09:17:46;;;;;;;7.82;1.95;;;9.50;99.90;;;;;;5111031;28;20507;-59
2022/04/05 09:20:13;;;;;;;14.65;2.38;;;9.50;99.90;;;;;;5118304;27;20034;-59
2022/04/05 09:22:39;;;;;;;21.02;4.95;;;9.40;99.90;;;;;;5130724;27;20027;-59
2022/04/05 09:25:06;;;;;;;14.65;2.95;;;9.40;99.90;;;;;;5131360;27;20034;-59
2022/04/05 09:27:52;;;;;;;19.88;2.97;;;9.40;99.90;;;;;;5130924;27;20027;-59
2022/04/05 09:30:25;;;;;;;19.92;3.78;;;9.50;99.90;;;;;;5117647;27;20074;-59
2022/04/05 09:32:51;;;;;;;14.77;2.72;;;9.60;99.90;;;;;;5110583;28;20016;-59
2022/04/05 09:35:19;;;;;;;12.13;2.92;;;9.90;99.90;;;;;;5110467;28;20066;-59
2022/04/05 09:37:47;;;;;;;11.02;2.30;;;10.10;99.90;;;;;;5126749;27;20023;-59
2022/04/05 09:40:26;;;;;;;14.68;3.25;;;10.30;99.90;;;;;;5129967;27;20032;-59
2022/04/05 09:43:13;;;;;;;13.43;2.95;;;10.40;99.90;;;;;;5118750;27;20032;-59
2022/04/05 09:45:46;;;;;;;13.65;3.35;;;10.40;99.90;;;;;;5114741;27;20027;-59
2022/04/05 09:48:13;;;;;;;10.63;2.95;;;10.40;99.90;;;;;;5130853;27;20019;-59
2022/04/05 09:50:59;;;;;;;9.70;2.80;;;10.20;99.90;;;;;;5129862;27;20507;-59
2022/04/05 09:53:26;;;;;;;11.93;2.40;;;10.00;99.90;;;;;;5119878;27;20046;-49
2022/04/05 09:56:19;;;;;;;9.32;2.70;;;9.90;99.90;;;;;;5118853;27;20466;-47
2022/04/05 09:58:50;;;;;;;14.23;3.45;;;9.90;99.90;;;;;;5121791;27;20043;-46
2022/04/05 10:01:20;;;;;;;9.25;2.60;;;9.60;99.90;;;;;;5130336;27;20292;-46
2022/04/05 10:03:58;;;;;;;13.43;3.22;;;9.50;99.90;;;;;;5131235;27;20574;-46
2022/04/05 10:06:24;;;;;;;14.52;3.38;;;9.40;99.90;;;;;;5132406;27;20035;-50
2022/04/05 10:08:50;;;;;;;14.65;3.72;;;9.40;99.90;;;;;;5131450;27;20019;-45
2022/04/05 10:11:16;;;;;;;10.57;3.42;;;9.40;99.90;;;;;;5129871;27;20046;-46
2022/04/05 10:13:41;;;;;;;14.45;3.20;;;9.40;99.90;;;;;;5131911;27;20057;-46
2022/04/05 10:16:10;;;;;;;12.55;2.97;;;9.30;99.90;;;;;;5129245;27;20035;-46
2022/04/05 10:18:36;;;;;;;12.90;3.65;;;9.30;99.90;;;;;;5113110;27;20086;-45
2022/04/05 10:21:04;;;;;;;15.23;3.72;;;9.30;99.90;;;;;;5118353;27;20106;-47
2022/04/05 10:23:31;;;;;;;16.33;3.05;;;9.30;99.90;;;;;;5131926;27;20027;-46
2022/04/05 10:25:57;;;;;;;9.52;3.38;;;9.20;99.90;;;;;;5132009;27;20022;-47
2022/04/05 10:28:28;;;;;;;9.45;3.45;;;9.20;99.90;;;;;;5131081;27;20467;-46
2022/04/05 10:31:19;;;;;;;13.45;3.25;;;9.30;99.90;;;;;;5128656;27;20475;-47
2022/04/05 10:33:52;;;;;;;14.73;3.63;;;9.30;99.90;;;;;;5131803;27;20681;-47
2022/04/05 10:36:24;;;;;;;10.50;3.47;;;9.30;99.90;;;;;;5131802;27;20050;-45
2022/04/05 10:39:12;;;;;;;12.10;2.90;;;9.30;99.90;;;;;;5131134;27;20023;-47
2022/04/05 10:41:37;;;;;;;5.20;2.90;;;9.40;99.90;;;;;;5130086;27;20035;-49
2022/04/05 10:44:24;;;;;;;12.10;3.97;;;9.70;99.90;;;;;;5130499;27;20035;-46
2022/04/05 10:46:55;;;;;;;10.55;2.95;;;10.00;99.90;;;;;;5119491;27;20019;-44
2022/04/05 10:49:34;;;;;;;19.42;3.58;;;10.20;99.90;;;;;;5110017;28;20039;-46
2022/04/05 10:52:17;;;;;;;11.52;2.75;;;10.30;99.90;;;;;;5131145;27;20491;-45
2022/04/05 10:54:51;;;;;;;7.32;2.33;;;10.20;99.90;;;;;;5129644;27;20031;-47
2022/04/05 10:57:37;;;;;;;7.40;2.53;;;10.10;99.90;;;;;;5130707;27;20023;-46
2022/04/05 11:00:18;;;;;;;9.90;2.80;;;10.20;99.90;;;;;;5105976;28;20549;-49
2022/04/05 11:03:00;;;;;;;11.98;2.78;;;10.30;99.90;;;;;;5092588;28;20502;-48
2022/04/05 11:05:36;;;;;;;11.75;2.90;;;10.30;99.90;;;;;;5121008;27;20475;-49
2022/04/05 11:08:06;;;;;;;10.23;3.05;;;10.10;99.90;;;;;;5130670;27;20034;-47
2022/04/05 11:10:44;;;;;;;13.60;2.55;;;10.10;99.90;;;;;;5129800;27;20064;-44
2022/04/05 11:13:16;;;;;;;11.55;3.17;;;9.90;99.90;;;;;;5131455;27;20452;-47
2022/04/05 11:15:45;;;;;;;12.70;2.47;;;10.00;99.90;;;;;;5131235;28;20051;-47
2022/04/05 11:18:12;;;;;;;31.88;11.90;;;9.70;99.90;;;;;;5131269;27;20023;-47
2022/04/05 11:20:42;;;;;;;11.27;4.95;;;9.80;99.90;;;;;;5120337;27;20035;-46
2022/04/05 11:23:08;;;;;;;14.57;3.20;;;9.80;99.90;;;;;;5144683;27;20129;-47
2022/04/05 11:25:35;;;;;;;12.90;2.65;;;9.60;99.90;;;;;;5150234;27;20042;-48
2022/04/05 11:28:12;;;;;;;15.20;2.45;;;9.60;99.90;;;;;;5148311;27;20079;-46
2022/04/05 11:30:50;;;;;;;8.40;2.15;;;9.60;99.90;;;;;;5112240;27;20043;-47
2022/04/05 11:33:29;;;;;;;11.55;3.15;;;9.50;99.90;;;;;;5128605;27;20019;-46
2022/04/05 11:36:00;;;;;;;6.50;2.05;;;9.50;99.90;;;;;;5118301;27;20015;-51
2022/04/05 11:38:32;;;;;;;8.48;2.50;;;9.60;99.90;;;;;;5119307;27;20027;-47
2022/04/05 11:41:33;;;;;;;5.97;2.33;;;9.40;99.90;;;;;;5116342;28;20012;-47
2022/04/05 11:44:06;;;;;;;9.18;2.17;;;9.50;99.90;;;;;;5043114;28;20071;-50
2022/04/05 11:46:37;;;;;;;11.55;2.58;;;9.50;99.90;;;;;;5042615;28;20033;-48
2022/04/05 11:49:05;;;;;;;10.70;3.50;;;9.40;99.90;;;;;;5089034;28;20023;-47
2022/04/05 11:51:36;;;;;;;12.73;3.15;;;9.40;99.90;;;;;;5123427;28;20027;-50
2022/04/05 11:54:07;;;;;;;10.45;3.17;;;9.40;99.90;;;;;;5122225;27;20396;-47
2022/04/05 11:56:36;;;;;;;9.65;2.90;;;9.40;99.90;;;;;;5132966;27;20147;-47
2022/04/05 11:59:04;;;;;;;10.55;2.97;;;9.40;99.90;;;;;;5132169;27;20234;-49
2022/04/05 12:01:34;;;;;;;12.32;2.97;;;9.30;99.90;;;;;;5132018;27;20034;-46
2022/04/05 12:04:05;;;;;;;16.00;3.90;;;9.20;99.90;;;;;;5119479;27;20548;-48
2022/04/05 12:06:33;;;;;;;10.82;3.20;;;9.20;99.90;;;;;;5127731;27;20035;-45
2022/04/05 12:09:04;;;;;;;10.27;3.33;;;9.10;99.90;;;;;;5132147;27;20086;-45
2022/04/05 12:11:32;;;;;;;11.02;4.35;;;9.00;99.90;;;;;;5127476;27;20393;-44
2022/04/05 12:13:59;;;;;;;12.15;5.38;;;9.00;99.90;;;;;;5112119;28;20027;-47
2022/04/05 12:16:27;;;;;;;13.68;6.43;;;8.90;99.90;;;;;;5111978;28;20023;-46
2022/04/05 12:18:53;;;;;;;15.75;7.22;;;8.80;99.90;;;;;;5118504;27;20048;-46
2022/04/05 12:21:21;;;;;;;16.85;7.63;;;8.80;99.90;;;;;;5117613;27;20028;-45
2022/04/05 12:23:47;;;;;;;21.83;9.25;;;8.80;99.90;;;;;;5111842;28;20585;-45
2022/04/05 12:26:15;;;;;;;21.85;8.73;;;8.60;99.90;;;;;;5116928;27;20191;-45
2022/04/05 12:28:46;;;;;;;20.05;7.82;;;8.40;99.90;;;;;;5115370;27;20190;-47
2022/04/05 12:31:17;;;;;;;16.70;8.38;;;8.40;99.90;;;;;;5117661;27;20019;-46
2022/04/05 12:33:58;;;;;;;16.88;8.02;;;8.40;99.90;;;;;;5132154;27;20098;-48
2022/04/05 12:36:30;;;;;;;29.30;8.63;;;8.70;99.90;;;;;;5132201;27;20054;-47
2022/04/05 12:38:56;;;;;;;16.40;7.53;;;8.80;99.90;;;;;;5130940;27;20031;-44
2022/04/05 12:41:21;;;;;;;16.83;7.38;;;9.10;99.90;;;;;;5124056;27;20024;-47
2022/04/05 12:44:07;;;;;;;14.70;7.50;;;9.20;99.90;;;;;;5111363;28;20036;-46
2022/04/05 12:46:53;;;;;;;14.23;7.97;;;9.40;99.90;;;;;;5119823;27;20509;-45
2022/04/05 12:49:33;;;;;;;17.05;7.22;;;9.50;99.90;;;;;;5122552;27;20465;-48
2022/04/05 12:52:14;;;;;;;11.17;6.07;;;9.60;99.90;;;;;;5122165;27;20020;-49